sensor_id;sensor_type;location;lat;lon;timestamp;P1;durP1;ratioP1;P2;durP2;ratioP2
31182;SDS011;17813;0.000;0.000;2023-11-19T00:02:08;1.90;;;1.80;;
31182;SDS011;17813;0.000;0.000;2023-11-19T00:04:36;1.83;;;1.73;;
31182;SDS011;17813;0.000;0.000;2023-11-19T00:07:06;1.50;;;1.40;;
31182;SDS011;17813;0.000;0.000;2023-11-19T00:09:33;1.50;;;1.40;;
31182;SDS011;17813;0.000;0.000;2023-11-19T00:12:04;1.27;;;1.23;;
31182;SDS011;17813;0.000;0.000;2023-11-19T00:14:32;3.53;;;1.50;;
31182;SDS011;17813;0.000;0.000;2023-11-19T00:17:01;1.53;;;1.43;;
31182;SDS011;17813;0.000;0.000;2023-11-19T00:19:29;1.50;;;1.40;;
31182;SDS011;17813;0.000;0.000;2023-11-19T00:21:56;1.50;;;1.40;;
31182;SDS011;17813;0.000;0.000;2023-11-19T00:24:34;1.70;;;1.47;;
31182;SDS011;17813;0.000;0.000;2023-11-19T00:27:02;1.50;;;1.40;;
31182;SDS011;17813;0.000;0.000;2023-11-19T00:29:29;1.50;;;1.40;;
31182;SDS011;17813;0.000;0.000;2023-11-19T00:31:57;1.50;;;1.40;;
31182;SDS011;17813;0.000;0.000;2023-11-19T00:34:24;1.53;;;1.43;;
31182;SDS011;17813;0.000;0.000;2023-11-19T00:36:51;1.40;;;1.30;;
31182;SDS011;17813;0.000;0.000;2023-11-19T00:39:21;1.30;;;1.23;;
31182;SDS011;17813;0.000;0.000;2023-11-19T00:41:51;1.20;;;1.20;;
31182;SDS011;17813;0.000;0.000;2023-11-19T00:44:19;1.40;;;1.30;;
31182;SDS011;17813;0.000;0.000;2023-11-19T00:46:48;1.50;;;1.40;;
31182;SDS011;17813;0.000;0.000;2023-11-19T00:49:15;1.40;;;1.30;;
31182;SDS011;17813;0.000;0.000;2023-11-19T00:51:42;1.57;;;1.20;;
31182;SDS011;17813;0.000;0.000;2023-11-19T00:54:12;1.37;;;1.27;;
31182;SDS011;17813;0.000;0.000;2023-11-19T00:56:39;1.30;;;1.20;;
31182;SDS011;17813;0.000;0.000;2023-11-19T00:59:05;1.50;;;1.40;;
31182;SDS011;17813;0.000;0.000;2023-11-19T01:01:33;1.13;;;1.13;;
31182;SDS011;17813;0.000;0.000;2023-11-19T01:04:00;1.30;;;1.30;;
31182;SDS011;17813;0.000;0.000;2023-11-19T01:06:37;1.30;;;1.20;;
31182;SDS011;17813;0.000;0.000;2023-11-19T01:09:04;1.33;;;1.23;;
31182;SDS011;17813;0.000;0.000;2023-11-19T01:11:41;1.40;;;1.30;;
31182;SDS011;17813;0.000;0.000;2023-11-19T01:14:09;1.40;;;1.30;;
31182;SDS011;17813;0.000;0.000;2023-11-19T01:16:36;1.27;;;1.27;;
31182;SDS011;17813;0.000;0.000;2023-11-19T01:19:03;1.30;;;1.20;;
31182;SDS011;17813;0.000;0.000;2023-11-19T01:21:41;1.43;;;1.33;;
31182;SDS011;17813;0.000;0.000;2023-11-19T01:24:09;1.50;;;1.40;;
31182;SDS011;17813;0.000;0.000;2023-11-19T01:26:53;1.40;;;1.30;;
31182;SDS011;17813;0.000;0.000;2023-11-19T01:29:32;1.20;;;1.20;;
31182;SDS011;17813;0.000;0.000;2023-11-19T01:32:02;1.40;;;1.30;;
31182;SDS011;17813;0.000;0.000;2023-11-19T01:34:30;1.20;;;1.20;;
31182;SDS011;17813;0.000;0.000;2023-11-19T01:36:58;1.40;;;1.30;;
31182;SDS011;17813;0.000;0.000;2023-11-19T01:39:26;1.20;;;1.20;;
31182;SDS011;17813;0.000;0.000;2023-11-19T01:41:52;1.50;;;1.40;;
31182;SDS011;17813;0.000;0.000;2023-11-19T01:44:20;2.27;;;1.40;;
31182;SDS011;17813;0.000;0.000;2023-11-19T01:46:48;1.67;;;1.30;;
31182;SDS011;17813;0.000;0.000;2023-11-19T01:49:18;1.47;;;1.37;;
31182;SDS011;17813;0.000;0.000;2023-11-19T01:51:47;1.27;;;1.17;;
31182;SDS011;17813;0.000;0.000;2023-11-19T01:54:15;1.40;;;1.30;;
31182;SDS011;17813;0.000;0.000;2023-11-19T01:56:44;1.47;;;1.37;;
31182;SDS011;17813;0.000;0.000;2023-11-19T01:59:11;1.20;;;1.10;;
31182;SDS011;17813;0.000;0.000;2023-11-19T02:01:40;1.30;;;1.20;;
31182;SDS011;17813;0.000;0.000;2023-11-19T02:04:07;1.50;;;1.40;;
31182;SDS011;17813;0.000;0.000;2023-11-19T02:06:36;1.40;;;1.30;;
31182;SDS011;17813;0.000;0.000;2023-11-19T02:09:07;1.40;;;1.30;;
31182;SDS011;17813;0.000;0.000;2023-11-19T02:11:42;1.50;;;1.40;;
31182;SDS011;17813;0.000;0.000;2023-11-19T02:14:10;1.37;;;1.30;;
31182;SDS011;17813;0.000;0.000;2023-11-19T02:16:42;1.40;;;1.30;;
31182;SDS011;17813;0.000;0.000;2023-11-19T02:19:11;1.30;;;1.13;;
31182;SDS011;17813;0.000;0.000;2023-11-19T02:21:38;1.23;;;1.20;;
31182;SDS011;17813;0.000;0.000;2023-11-19T02:24:06;1.00;;;1.00;;
31182;SDS011;17813;0.000;0.000;2023-11-19T02:29:24;1.30;;;1.20;;
31182;SDS011;17813;0.000;0.000;2023-11-19T02:31:52;1.13;;;1.03;;
31182;SDS011;17813;0.000;0.000;2023-11-19T02:34:20;1.10;;;1.00;;
31182;SDS011;17813;0.000;0.000;2023-11-19T02:37:04;1.77;;;1.10;;
31182;SDS011;17813;0.000;0.000;2023-11-19T02:39:31;1.40;;;1.30;;
31182;SDS011;17813;0.000;0.000;2023-11-19T02:41:59;1.80;;;1.30;;
31182;SDS011;17813;0.000;0.000;2023-11-19T02:44:30;1.20;;;1.10;;
31182;SDS011;17813;0.000;0.000;2023-11-19T02:46:58;0.90;;;0.90;;
31182;SDS011;17813;0.000;0.000;2023-11-19T02:49:26;1.07;;;1.07;;
31182;SDS011;17813;0.000;0.000;2023-11-19T02:51:54;0.90;;;0.90;;
31182;SDS011;17813;0.000;0.000;2023-11-19T02:54:22;0.70;;;0.70;;
31182;SDS011;17813;0.000;0.000;2023-11-19T02:56:53;1.00;;;1.00;;
31182;SDS011;17813;0.000;0.000;2023-11-19T02:59:25;1.00;;;1.00;;
31182;SDS011;17813;0.000;0.000;2023-11-19T03:02:04;0.83;;;0.83;;
31182;SDS011;17813;0.000;0.000;2023-11-19T03:04:41;1.00;;;1.00;;
31182;SDS011;17813;0.000;0.000;2023-11-19T03:07:10;1.07;;;0.90;;
31182;SDS011;17813;0.000;0.000;2023-11-19T03:09:37;1.10;;;1.10;;
31182;SDS011;17813;0.000;0.000;2023-11-19T03:12:06;1.10;;;1.00;;
31182;SDS011;17813;0.000;0.000;2023-11-19T03:14:36;1.17;;;1.07;;
31182;SDS011;17813;0.000;0.000;2023-11-19T03:17:03;1.13;;;1.00;;
31182;SDS011;17813;0.000;0.000;2023-11-19T03:19:32;0.87;;;0.87;;
31182;SDS011;17813;0.000;0.000;2023-11-19T03:21:59;0.90;;;0.90;;
31182;SDS011;17813;0.000;0.000;2023-11-19T03:24:28;1.53;;;0.80;;
31182;SDS011;17813;0.000;0.000;2023-11-19T03:26:58;1.20;;;1.10;;
31182;SDS011;17813;0.000;0.000;2023-11-19T03:29:33;0.90;;;0.90;;
31182;SDS011;17813;0.000;0.000;2023-11-19T03:32:02;1.10;;;1.00;;
31182;SDS011;17813;0.000;0.000;2023-11-19T03:34:30;1.03;;;0.80;;
31182;SDS011;17813;0.000;0.000;2023-11-19T03:36:58;0.80;;;0.80;;
31182;SDS011;17813;0.000;0.000;2023-11-19T03:39:26;0.87;;;0.87;;
31182;SDS011;17813;0.000;0.000;2023-11-19T03:42:03;0.70;;;0.70;;
31182;SDS011;17813;0.000;0.000;2023-11-19T03:44:30;0.70;;;0.70;;
31182;SDS011;17813;0.000;0.000;2023-11-19T03:46:59;0.70;;;0.70;;
31182;SDS011;17813;0.000;0.000;2023-11-19T03:49:27;1.07;;;0.60;;
31182;SDS011;17813;0.000;0.000;2023-11-19T03:51:54;0.40;;;0.40;;
31182;SDS011;17813;0.000;0.000;2023-11-19T03:54:22;0.50;;;0.50;;
31182;SDS011;17813;0.000;0.000;2023-11-19T03:57:01;0.60;;;0.60;;
31182;SDS011;17813;0.000;0.000;2023-11-19T03:59:30;0.50;;;0.50;;
31182;SDS011;17813;0.000;0.000;2023-11-19T04:01:58;0.53;;;0.53;;
31182;SDS011;17813;0.000;0.000;2023-11-19T04:04:28;0.60;;;0.50;;
31182;SDS011;17813;0.000;0.000;2023-11-19T04:06:56;0.50;;;0.50;;
31182;SDS011;17813;0.000;0.000;2023-11-19T04:09:24;0.67;;;0.67;;
31182;SDS011;17813;0.000;0.000;2023-11-19T04:11:52;2.40;;;0.50;;
31182;SDS011;17813;0.000;0.000;2023-11-19T04:14:21;0.73;;;0.73;;
31182;SDS011;17813;0.000;0.000;2023-11-19T04:16:50;0.40;;;0.40;;
31182;SDS011;17813;0.000;0.000;2023-11-19T04:19:23;0.60;;;0.60;;
31182;SDS011;17813;0.000;0.000;2023-11-19T04:21:55;0.40;;;0.40;;
31182;SDS011;17813;0.000;0.000;2023-11-19T04:24:23;0.57;;;0.50;;
31182;SDS011;17813;0.000;0.000;2023-11-19T04:26:52;0.50;;;0.50;;
31182;SDS011;17813;0.000;0.000;2023-11-19T04:29:21;0.47;;;0.47;;
31182;SDS011;17813;0.000;0.000;2023-11-19T04:31:48;0.80;;;0.50;;
31182;SDS011;17813;0.000;0.000;2023-11-19T04:34:15;0.53;;;0.53;;
31182;SDS011;17813;0.000;0.000;2023-11-19T04:36:43;0.40;;;0.40;;
31182;SDS011;17813;0.000;0.000;2023-11-19T04:39:11;0.43;;;0.43;;
31182;SDS011;17813;0.000;0.000;2023-11-19T04:41:47;0.50;;;0.50;;
31182;SDS011;17813;0.000;0.000;2023-11-19T04:44:20;0.40;;;0.40;;
31182;SDS011;17813;0.000;0.000;2023-11-19T04:47:03;0.30;;;0.30;;
31182;SDS011;17813;0.000;0.000;2023-11-19T04:49:32;0.40;;;0.40;;
31182;SDS011;17813;0.000;0.000;2023-11-19T04:51:59;0.33;;;0.33;;
31182;SDS011;17813;0.000;0.000;2023-11-19T04:54:28;0.40;;;0.30;;
31182;SDS011;17813;0.000;0.000;2023-11-19T04:56:58;0.53;;;0.30;;
31182;SDS011;17813;0.000;0.000;2023-11-19T04:59:25;0.30;;;0.30;;
31182;SDS011;17813;0.000;0.000;2023-11-19T05:01:55;0.30;;;0.23;;
31182;SDS011;17813;0.000;0.000;2023-11-19T05:04:26;0.30;;;0.30;;
31182;SDS011;17813;0.000;0.000;2023-11-19T05:06:53;0.93;;;0.23;;
31182;SDS011;17813;0.000;0.000;2023-11-19T05:09:21;0.30;;;0.30;;
31182;SDS011;17813;0.000;0.000;2023-11-19T05:11:51;0.30;;;0.30;;
31182;SDS011;17813;0.000;0.000;2023-11-19T05:14:23;0.20;;;0.20;;
31182;SDS011;17813;0.000;0.000;2023-11-19T05:16:51;0.30;;;0.23;;
31182;SDS011;17813;0.000;0.000;2023-11-19T05:19:18;0.20;;;0.20;;
31182;SDS011;17813;0.000;0.000;2023-11-19T05:21:45;0.90;;;0.30;;
31182;SDS011;17813;0.000;0.000;2023-11-19T05:24:13;0.50;;;0.30;;
31182;SDS011;17813;0.000;0.000;2023-11-19T05:26:41;0.20;;;0.20;;
31182;SDS011;17813;0.000;0.000;2023-11-19T05:29:11;0.10;;;0.10;;
31182;SDS011;17813;0.000;0.000;2023-11-19T05:31:49;0.20;;;0.20;;
31182;SDS011;17813;0.000;0.000;2023-11-19T05:34:20;0.30;;;0.30;;
31182;SDS011;17813;0.000;0.000;2023-11-19T05:36:49;0.27;;;0.20;;
31182;SDS011;17813;0.000;0.000;2023-11-19T05:39:16;0.37;;;0.30;;
31182;SDS011;17813;0.000;0.000;2023-11-19T05:41:47;0.20;;;0.20;;
31182;SDS011;17813;0.000;0.000;2023-11-19T05:44:16;0.20;;;0.20;;
31182;SDS011;17813;0.000;0.000;2023-11-19T05:46:45;1.70;;;0.30;;
31182;SDS011;17813;0.000;0.000;2023-11-19T05:49:13;0.20;;;0.20;;
31182;SDS011;17813;0.000;0.000;2023-11-19T05:51:41;0.20;;;0.20;;
31182;SDS011;17813;0.000;0.000;2023-11-19T05:54:09;0.13;;;0.13;;
31182;SDS011;17813;0.000;0.000;2023-11-19T05:56:38;0.20;;;0.20;;
31182;SDS011;17813;0.000;0.000;2023-11-19T05:59:16;0.30;;;0.30;;
31182;SDS011;17813;0.000;0.000;2023-11-19T06:01:45;0.93;;;0.10;;
31182;SDS011;17813;0.000;0.000;2023-11-19T06:04:13;0.20;;;0.20;;
31182;SDS011;17813;0.000;0.000;2023-11-19T06:06:40;0.20;;;0.20;;
31182;SDS011;17813;0.000;0.000;2023-11-19T06:09:08;0.20;;;0.20;;
31182;SDS011;17813;0.000;0.000;2023-11-19T06:11:37;0.60;;;0.27;;
31182;SDS011;17813;0.000;0.000;2023-11-19T06:14:08;0.40;;;0.40;;
31182;SDS011;17813;0.000;0.000;2023-11-19T06:16:36;0.20;;;0.20;;
31182;SDS011;17813;0.000;0.000;2023-11-19T06:19:05;0.30;;;0.30;;
31182;SDS011;17813;0.000;0.000;2023-11-19T06:21:34;0.30;;;0.23;;
31182;SDS011;17813;0.000;0.000;2023-11-19T06:24:06;0.30;;;0.30;;
31182;SDS011;17813;0.000;0.000;2023-11-19T06:26:36;0.23;;;0.23;;
31182;SDS011;17813;0.000;0.000;2023-11-19T06:29:04;1.50;;;0.23;;
31182;SDS011;17813;0.000;0.000;2023-11-19T06:31:34;0.20;;;0.20;;
31182;SDS011;17813;0.000;0.000;2023-11-19T06:34:03;1.30;;;0.30;;
31182;SDS011;17813;0.000;0.000;2023-11-19T06:36:30;0.20;;;0.20;;
31182;SDS011;17813;0.000;0.000;2023-11-19T06:38:58;0.40;;;0.40;;
31182;SDS011;17813;0.000;0.000;2023-11-19T06:41:26;0.50;;;0.50;;
31182;SDS011;17813;0.000;0.000;2023-11-19T06:43:55;0.40;;;0.40;;
31182;SDS011;17813;0.000;0.000;2023-11-19T06:46:23;0.20;;;0.20;;
31182;SDS011;17813;0.000;0.000;2023-11-19T06:48:51;0.60;;;0.40;;
31182;SDS011;17813;0.000;0.000;2023-11-19T06:51:20;0.33;;;0.33;;
31182;SDS011;17813;0.000;0.000;2023-11-19T06:53:54;0.33;;;0.33;;
31182;SDS011;17813;0.000;0.000;2023-11-19T06:56:26;0.30;;;0.30;;
31182;SDS011;17813;0.000;0.000;2023-11-19T06:58:53;0.30;;;0.30;;
31182;SDS011;17813;0.000;0.000;2023-11-19T07:01:21;0.83;;;0.40;;
31182;SDS011;17813;0.000;0.000;2023-11-19T07:03:48;0.33;;;0.30;;
31182;SDS011;17813;0.000;0.000;2023-11-19T07:06:16;0.67;;;0.40;;
31182;SDS011;17813;0.000;0.000;2023-11-19T07:08:44;0.60;;;0.40;;
31182;SDS011;17813;0.000;0.000;2023-11-19T07:11:12;0.30;;;0.30;;
31182;SDS011;17813;0.000;0.000;2023-11-19T07:13:43;0.40;;;0.40;;
31182;SDS011;17813;0.000;0.000;2023-11-19T07:16:14;0.20;;;0.20;;
31182;SDS011;17813;0.000;0.000;2023-11-19T07:18:43;0.40;;;0.40;;
31182;SDS011;17813;0.000;0.000;2023-11-19T07:21:11;0.73;;;0.50;;
31182;SDS011;17813;0.000;0.000;2023-11-19T07:23:38;0.20;;;0.20;;
31182;SDS011;17813;0.000;0.000;2023-11-19T07:26:06;0.30;;;0.30;;
31182;SDS011;17813;0.000;0.000;2023-11-19T07:28:34;0.20;;;0.20;;
31182;SDS011;17813;0.000;0.000;2023-11-19T07:31:01;0.40;;;0.30;;
31182;SDS011;17813;0.000;0.000;2023-11-19T07:33:29;0.30;;;0.30;;
31182;SDS011;17813;0.000;0.000;2023-11-19T07:36:19;0.10;;;0.10;;
31182;SDS011;17813;0.000;0.000;2023-11-19T07:38:50;0.23;;;0.23;;
31182;SDS011;17813;0.000;0.000;2023-11-19T07:41:19;0.40;;;0.40;;
31182;SDS011;17813;0.000;0.000;2023-11-19T07:43:47;0.30;;;0.30;;
31182;SDS011;17813;0.000;0.000;2023-11-19T07:46:25;0.60;;;0.47;;
31182;SDS011;17813;0.000;0.000;2023-11-19T07:48:57;0.77;;;0.50;;
31182;SDS011;17813;0.000;0.000;2023-11-19T07:51:24;0.50;;;0.47;;
31182;SDS011;17813;0.000;0.000;2023-11-19T07:53:51;0.83;;;0.60;;
31182;SDS011;17813;0.000;0.000;2023-11-19T07:56:20;1.63;;;0.40;;
31182;SDS011;17813;0.000;0.000;2023-11-19T07:58:48;1.50;;;0.70;;
31182;SDS011;17813;0.000;0.000;2023-11-19T08:01:16;0.63;;;0.60;;
31182;SDS011;17813;0.000;0.000;2023-11-19T08:03:42;0.83;;;0.50;;
31182;SDS011;17813;0.000;0.000;2023-11-19T08:06:10;1.30;;;0.67;;
31182;SDS011;17813;0.000;0.000;2023-11-19T08:08:37;0.63;;;0.60;;
31182;SDS011;17813;0.000;0.000;2023-11-19T08:11:06;0.67;;;0.40;;
31182;SDS011;17813;0.000;0.000;2023-11-19T08:13:35;0.90;;;0.53;;
31182;SDS011;17813;0.000;0.000;2023-11-19T08:16:04;1.47;;;0.60;;
31182;SDS011;17813;0.000;0.000;2023-11-19T08:18:33;1.00;;;0.53;;
31182;SDS011;17813;0.000;0.000;2023-11-19T08:21:00;1.40;;;0.57;;
31182;SDS011;17813;0.000;0.000;2023-11-19T08:23:31;1.53;;;0.80;;
31182;SDS011;17813;0.000;0.000;2023-11-19T08:25:59;0.93;;;0.70;;
31182;SDS011;17813;0.000;0.000;2023-11-19T08:28:26;2.13;;;0.87;;
31182;SDS011;17813;0.000;0.000;2023-11-19T08:30:54;1.27;;;0.90;;
31182;SDS011;17813;0.000;0.000;2023-11-19T08:33:21;1.07;;;0.90;;
31182;SDS011;17813;0.000;0.000;2023-11-19T08:35:49;1.43;;;0.80;;
31182;SDS011;17813;0.000;0.000;2023-11-19T08:38:16;1.00;;;0.90;;
31182;SDS011;17813;0.000;0.000;2023-11-19T08:40:43;1.03;;;0.90;;
31182;SDS011;17813;0.000;0.000;2023-11-19T08:43:12;1.10;;;0.73;;
31182;SDS011;17813;0.000;0.000;2023-11-19T08:45:40;1.63;;;1.00;;
31182;SDS011;17813;0.000;0.000;2023-11-19T08:48:07;1.53;;;0.90;;
31182;SDS011;17813;0.000;0.000;2023-11-19T08:50:35;1.37;;;0.83;;
31182;SDS011;17813;0.000;0.000;2023-11-19T08:53:05;1.73;;;0.80;;
31182;SDS011;17813;0.000;0.000;2023-11-19T08:55:33;1.13;;;0.70;;
31182;SDS011;17813;0.000;0.000;2023-11-19T08:58:16;0.90;;;0.70;;
31182;SDS011;17813;0.000;0.000;2023-11-19T09:00:44;1.10;;;0.80;;
31182;SDS011;17813;0.000;0.000;2023-11-19T09:03:11;1.17;;;0.70;;
31182;SDS011;17813;0.000;0.000;2023-11-19T09:05:38;0.93;;;0.67;;
31182;SDS011;17813;0.000;0.000;2023-11-19T09:08:06;0.60;;;0.60;;
31182;SDS011;17813;0.000;0.000;2023-11-19T09:10:38;0.97;;;0.60;;
31182;SDS011;17813;0.000;0.000;2023-11-19T09:13:05;2.47;;;1.73;;
31182;SDS011;17813;0.000;0.000;2023-11-19T09:15:33;2.13;;;1.60;;
31182;SDS011;17813;0.000;0.000;2023-11-19T09:18:00;1.60;;;1.43;;
31182;SDS011;17813;0.000;0.000;2023-11-19T09:20:27;2.13;;;1.10;;
31182;SDS011;17813;0.000;0.000;2023-11-19T09:23:00;0.87;;;0.57;;
31182;SDS011;17813;0.000;0.000;2023-11-19T09:25:33;0.30;;;0.30;;
31182;SDS011;17813;0.000;0.000;2023-11-19T09:28:01;0.37;;;0.37;;
31182;SDS011;17813;0.000;0.000;2023-11-19T09:30:28;0.67;;;0.50;;
31182;SDS011;17813;0.000;0.000;2023-11-19T09:32:55;1.20;;;0.50;;
31182;SDS011;17813;0.000;0.000;2023-11-19T09:35:26;0.47;;;0.40;;
31182;SDS011;17813;0.000;0.000;2023-11-19T09:37:54;1.17;;;0.70;;
31182;SDS011;17813;0.000;0.000;2023-11-19T09:40:23;1.13;;;0.70;;
31182;SDS011;17813;0.000;0.000;2023-11-19T09:42:51;1.50;;;0.40;;
31182;SDS011;17813;0.000;0.000;2023-11-19T09:45:20;0.90;;;0.73;;
31182;SDS011;17813;0.000;0.000;2023-11-19T09:47:49;0.97;;;0.57;;
31182;SDS011;17813;0.000;0.000;2023-11-19T09:50:19;0.73;;;0.47;;
31182;SDS011;17813;0.000;0.000;2023-11-19T09:52:47;1.30;;;0.70;;
31182;SDS011;17813;0.000;0.000;2023-11-19T09:55:16;1.88;;;0.93;;
31182;SDS011;17813;0.000;0.000;2023-11-19T09:57:44;3.22;;;1.63;;
31182;SDS011;17813;0.000;0.000;2023-11-19T10:00:13;1.50;;;0.80;;
31182;SDS011;17813;0.000;0.000;2023-11-19T10:02:47;2.20;;;1.00;;
31182;SDS011;17813;0.000;0.000;2023-11-19T10:05:21;2.60;;;0.90;;
31182;SDS011;17813;0.000;0.000;2023-11-19T10:07:52;2.10;;;1.10;;
31182;SDS011;17813;0.000;0.000;2023-11-19T10:10:23;2.47;;;1.10;;
31182;SDS011;17813;0.000;0.000;2023-11-19T10:12:51;2.50;;;1.08;;
31182;SDS011;17813;0.000;0.000;2023-11-19T10:15:22;5.78;;;1.30;;
31182;SDS011;17813;0.000;0.000;2023-11-19T10:17:55;2.60;;;1.20;;
31182;SDS011;17813;0.000;0.000;2023-11-19T10:20:22;3.58;;;1.20;;
31182;SDS011;17813;0.000;0.000;2023-11-19T10:22:52;3.65;;;1.33;;
31182;SDS011;17813;0.000;0.000;2023-11-19T10:25:22;2.15;;;1.23;;
31182;SDS011;17813;0.000;0.000;2023-11-19T10:27:56;3.20;;;1.30;;
31182;SDS011;17813;0.000;0.000;2023-11-19T10:30:27;2.83;;;1.33;;
31182;SDS011;17813;0.000;0.000;2023-11-19T10:33:07;5.57;;;1.70;;
31182;SDS011;17813;0.000;0.000;2023-11-19T10:35:37;3.53;;;1.42;;
31182;SDS011;17813;0.000;0.000;2023-11-19T10:38:24;4.72;;;1.90;;
31182;SDS011;17813;0.000;0.000;2023-11-19T10:40:53;4.90;;;2.00;;
31182;SDS011;17813;0.000;0.000;2023-11-19T10:43:21;6.07;;;2.25;;
31182;SDS011;17813;0.000;0.000;2023-11-19T10:45:49;4.35;;;1.80;;
31182;SDS011;17813;0.000;0.000;2023-11-19T10:48:17;6.30;;;2.13;;
31182;SDS011;17813;0.000;0.000;2023-11-19T10:50:45;5.25;;;1.88;;
31182;SDS011;17813;0.000;0.000;2023-11-19T10:53:35;5.10;;;2.00;;
31182;SDS011;17813;0.000;0.000;2023-11-19T10:56:12;5.63;;;2.10;;
31182;SDS011;17813;0.000;0.000;2023-11-19T10:59:16;5.22;;;2.30;;
31182;SDS011;17813;0.000;0.000;2023-11-19T11:01:45;6.40;;;2.08;;
31182;SDS011;17813;0.000;0.000;2023-11-19T11:04:24;4.18;;;1.80;;
31182;SDS011;17813;0.000;0.000;2023-11-19T11:06:53;3.53;;;1.80;;
31182;SDS011;17813;0.000;0.000;2023-11-19T11:09:25;4.47;;;1.80;;
31182;SDS011;17813;0.000;0.000;2023-11-19T11:11:55;3.75;;;1.70;;
31182;SDS011;17813;0.000;0.000;2023-11-19T11:14:26;4.45;;;1.98;;
31182;SDS011;17813;0.000;0.000;2023-11-19T11:16:56;4.70;;;1.83;;
31182;SDS011;17813;0.000;0.000;2023-11-19T11:19:25;5.13;;;1.88;;
31182;SDS011;17813;0.000;0.000;2023-11-19T11:22:04;6.03;;;1.92;;
31182;SDS011;17813;0.000;0.000;2023-11-19T11:27:46;6.17;;;2.10;;
31182;SDS011;17813;0.000;0.000;2023-11-19T11:33:41;6.90;;;2.27;;
31182;SDS011;17813;0.000;0.000;2023-11-19T11:36:30;6.67;;;2.53;;
31182;SDS011;17813;0.000;0.000;2023-11-19T11:39:05;6.90;;;2.47;;
31182;SDS011;17813;0.000;0.000;2023-11-19T11:41:33;8.37;;;2.40;;
31182;SDS011;17813;0.000;0.000;2023-11-19T11:44:00;4.80;;;2.10;;
31182;SDS011;17813;0.000;0.000;2023-11-19T11:49:04;7.40;;;2.43;;
31182;SDS011;17813;0.000;0.000;2023-11-19T11:57:04;5.17;;;2.30;;
31182;SDS011;17813;0.000;0.000;2023-11-19T12:02:19;7.37;;;2.33;;
31182;SDS011;17813;0.000;0.000;2023-11-19T12:05:07;6.33;;;2.30;;
31182;SDS011;17813;0.000;0.000;2023-11-19T12:07:36;5.47;;;2.03;;
31182;SDS011;17813;0.000;0.000;2023-11-19T12:10:06;8.10;;;2.40;;
31182;SDS011;17813;0.000;0.000;2023-11-19T12:12:59;6.07;;;2.10;;
31182;SDS011;17813;0.000;0.000;2023-11-19T12:15:27;5.33;;;1.90;;
31182;SDS011;17813;0.000;0.000;2023-11-19T12:17:55;5.97;;;2.03;;
31182;SDS011;17813;0.000;0.000;2023-11-19T12:20:24;5.37;;;2.17;;
31182;SDS011;17813;0.000;0.000;2023-11-19T12:22:55;6.67;;;2.13;;
31182;SDS011;17813;0.000;0.000;2023-11-19T12:25:27;7.67;;;2.40;;
31182;SDS011;17813;0.000;0.000;2023-11-19T12:28:00;6.73;;;2.40;;
31182;SDS011;17813;0.000;0.000;2023-11-19T12:30:30;7.13;;;2.03;;
31182;SDS011;17813;0.000;0.000;2023-11-19T12:32:57;9.03;;;2.37;;
31182;SDS011;17813;0.000;0.000;2023-11-19T12:35:28;6.03;;;2.00;;
31182;SDS011;17813;0.000;0.000;2023-11-19T12:37:56;5.10;;;1.83;;
31182;SDS011;17813;0.000;0.000;2023-11-19T12:40:23;3.90;;;2.00;;
31182;SDS011;17813;0.000;0.000;2023-11-19T12:42:52;5.17;;;1.87;;
31182;SDS011;17813;0.000;0.000;2023-11-19T12:45:21;5.47;;;1.83;;
31182;SDS011;17813;0.000;0.000;2023-11-19T12:47:50;5.50;;;2.03;;
31182;SDS011;17813;0.000;0.000;2023-11-19T12:51:12;5.23;;;1.80;;
31182;SDS011;17813;0.000;0.000;2023-11-19T12:53:57;4.00;;;1.60;;
31182;SDS011;17813;0.000;0.000;2023-11-19T12:56:25;6.87;;;2.10;;
31182;SDS011;17813;0.000;0.000;2023-11-19T12:59:11;4.67;;;1.73;;
31182;SDS011;17813;0.000;0.000;2023-11-19T13:01:38;6.70;;;2.27;;
31182;SDS011;17813;0.000;0.000;2023-11-19T13:04:18;5.50;;;1.87;;
31182;SDS011;17813;0.000;0.000;2023-11-19T13:06:45;5.97;;;2.10;;
31182;SDS011;17813;0.000;0.000;2023-11-19T13:09:25;6.20;;;2.30;;
31182;SDS011;17813;0.000;0.000;2023-11-19T13:11:54;6.47;;;2.20;;
31182;SDS011;17813;0.000;0.000;2023-11-19T13:14:23;6.97;;;2.13;;
31182;SDS011;17813;0.000;0.000;2023-11-19T13:17:06;4.83;;;1.83;;
31182;SDS011;17813;0.000;0.000;2023-11-19T13:19:40;7.53;;;2.20;;
31182;SDS011;17813;0.000;0.000;2023-11-19T13:22:07;7.17;;;2.60;;
31182;SDS011;17813;0.000;0.000;2023-11-19T13:24:38;6.13;;;2.10;;
31182;SDS011;17813;0.000;0.000;2023-11-19T13:27:06;3.73;;;1.97;;
31182;SDS011;17813;0.000;0.000;2023-11-19T13:29:34;7.47;;;2.00;;
31182;SDS011;17813;0.000;0.000;2023-11-19T13:32:03;5.30;;;2.00;;
31182;SDS011;17813;0.000;0.000;2023-11-19T13:34:33;6.40;;;1.87;;
31182;SDS011;17813;0.000;0.000;2023-11-19T13:37:02;6.63;;;2.10;;
31182;SDS011;17813;0.000;0.000;2023-11-19T13:39:48;5.53;;;2.10;;
31182;SDS011;17813;0.000;0.000;2023-11-19T13:42:15;4.63;;;1.60;;
31182;SDS011;17813;0.000;0.000;2023-11-19T13:44:43;6.93;;;2.17;;
31182;SDS011;17813;0.000;0.000;2023-11-19T13:47:11;5.03;;;2.00;;
31182;SDS011;17813;0.000;0.000;2023-11-19T13:49:50;4.53;;;1.67;;
31182;SDS011;17813;0.000;0.000;2023-11-19T13:52:27;6.13;;;2.00;;
31182;SDS011;17813;0.000;0.000;2023-11-19T13:54:55;5.37;;;1.90;;
31182;SDS011;17813;0.000;0.000;2023-11-19T13:57:26;4.07;;;1.80;;
31182;SDS011;17813;0.000;0.000;2023-11-19T14:00:02;7.33;;;2.20;;
31182;SDS011;17813;0.000;0.000;2023-11-19T14:02:35;3.43;;;1.50;;
31182;SDS011;17813;0.000;0.000;2023-11-19T14:05:03;7.10;;;2.10;;
31182;SDS011;17813;0.000;0.000;2023-11-19T14:07:32;3.93;;;1.70;;
31182;SDS011;17813;0.000;0.000;2023-11-19T14:10:02;6.00;;;2.03;;
31182;SDS011;17813;0.000;0.000;2023-11-19T14:12:36;4.10;;;1.67;;
31182;SDS011;17813;0.000;0.000;2023-11-19T14:15:06;6.53;;;1.90;;
31182;SDS011;17813;0.000;0.000;2023-11-19T14:17:40;4.97;;;2.10;;
31182;SDS011;17813;0.000;0.000;2023-11-19T14:24:10;6.50;;;1.73;;
31182;SDS011;17813;0.000;0.000;2023-11-19T14:26:45;6.37;;;1.80;;
31182;SDS011;17813;0.000;0.000;2023-11-19T14:29:17;5.07;;;1.90;;
31182;SDS011;17813;0.000;0.000;2023-11-19T14:31:48;5.87;;;2.10;;
31182;SDS011;17813;0.000;0.000;2023-11-19T14:34:17;5.30;;;1.90;;
31182;SDS011;17813;0.000;0.000;2023-11-19T14:36:46;7.30;;;2.13;;
31182;SDS011;17813;0.000;0.000;2023-11-19T14:39:13;4.33;;;1.83;;
31182;SDS011;17813;0.000;0.000;2023-11-19T14:41:40;6.50;;;1.93;;
31182;SDS011;17813;0.000;0.000;2023-11-19T14:44:08;5.33;;;1.87;;
31182;SDS011;17813;0.000;0.000;2023-11-19T14:46:35;4.40;;;1.77;;
31182;SDS011;17813;0.000;0.000;2023-11-19T14:49:03;6.37;;;2.57;;
31182;SDS011;17813;0.000;0.000;2023-11-19T14:51:30;5.50;;;1.90;;
31182;SDS011;17813;0.000;0.000;2023-11-19T14:53:57;4.57;;;1.97;;
31182;SDS011;17813;0.000;0.000;2023-11-19T14:56:27;6.57;;;2.10;;
31182;SDS011;17813;0.000;0.000;2023-11-19T14:58:54;6.43;;;2.30;;
31182;SDS011;17813;0.000;0.000;2023-11-19T15:01:32;7.33;;;2.00;;
31182;SDS011;17813;0.000;0.000;2023-11-19T15:04:02;7.17;;;2.00;;
31182;SDS011;17813;0.000;0.000;2023-11-19T15:06:29;5.07;;;1.90;;
31182;SDS011;17813;0.000;0.000;2023-11-19T15:08:58;6.33;;;2.10;;
31182;SDS011;17813;0.000;0.000;2023-11-19T15:11:27;5.00;;;1.80;;
31182;SDS011;17813;0.000;0.000;2023-11-19T15:13:54;5.83;;;2.00;;
31182;SDS011;17813;0.000;0.000;2023-11-19T15:16:22;8.83;;;2.43;;
31182;SDS011;17813;0.000;0.000;2023-11-19T15:18:57;5.10;;;2.00;;
31182;SDS011;17813;0.000;0.000;2023-11-19T15:21:26;4.60;;;1.93;;
31182;SDS011;17813;0.000;0.000;2023-11-19T15:23:55;8.10;;;2.30;;
31182;SDS011;17813;0.000;0.000;2023-11-19T15:26:22;7.57;;;2.17;;
31182;SDS011;17813;0.000;0.000;2023-11-19T15:28:56;6.90;;;2.00;;
31182;SDS011;17813;0.000;0.000;2023-11-19T15:31:25;6.40;;;2.23;;
31182;SDS011;17813;0.000;0.000;2023-11-19T15:33:58;6.63;;;2.10;;
31182;SDS011;17813;0.000;0.000;2023-11-19T15:36:27;5.90;;;2.10;;
31182;SDS011;17813;0.000;0.000;2023-11-19T15:38:56;6.83;;;2.13;;
31182;SDS011;17813;0.000;0.000;2023-11-19T15:41:33;6.83;;;2.30;;
31182;SDS011;17813;0.000;0.000;2023-11-19T15:44:04;5.50;;;2.33;;